createdAt,value
2018-06-15T00:00:20.889Z,9.13
2018-06-15T00:02:53.421Z,9.10
2018-06-15T00:05:20.524Z,9.10
2018-06-15T00:07:47.668Z,9.40
2018-06-15T00:10:14.774Z,8.97
2018-06-15T00:12:41.942Z,9.57
2018-06-15T00:15:09.042Z,8.13
2018-06-15T00:17:36.221Z,9.00
2018-06-15T00:20:03.461Z,9.13
2018-06-15T00:22:30.557Z,9.40
2018-06-15T00:24:57.840Z,9.13
2018-06-15T00:27:24.956Z,9.43
2018-06-15T00:29:52.046Z,9.07
2018-06-15T00:32:19.153Z,9.40
2018-06-15T00:34:46.260Z,9.70
2018-06-15T00:37:13.376Z,9.33
2018-06-15T00:39:40.628Z,9.23
2018-06-15T00:42:07.721Z,9.47
2018-06-15T00:44:34.817Z,9.37
2018-06-15T00:47:01.917Z,9.37
2018-06-15T00:49:29.109Z,9.63
2018-06-15T00:51:56.215Z,9.63
2018-06-15T00:54:23.334Z,10.20
2018-06-15T00:56:56.213Z,9.70
2018-06-15T00:59:23.309Z,9.10
2018-06-15T01:01:50.436Z,8.73
2018-06-15T01:04:17.537Z,9.20
2018-06-15T01:06:44.645Z,8.93
2018-06-15T01:09:11.784Z,9.13
2018-06-15T01:11:39.054Z,10.67
2018-06-15T01:14:06.174Z,9.60
2018-06-15T01:16:33.318Z,10.37
2018-06-15T01:19:00.556Z,9.40
2018-06-15T01:21:27.653Z,9.80
2018-06-15T01:23:54.774Z,10.03
2018-06-15T01:26:21.893Z,10.27
2018-06-15T01:28:49.129Z,9.93
2018-06-15T01:31:16.220Z,10.43
2018-06-15T01:33:43.385Z,9.90
2018-06-15T01:36:10.497Z,10.40
2018-06-15T01:38:37.605Z,10.80
2018-06-15T01:41:04.746Z,10.97
2018-06-15T01:43:31.901Z,10.20
2018-06-15T01:45:59.009Z,9.93
2018-06-15T01:48:26.105Z,11.13
2018-06-15T01:50:53.339Z,11.90
2018-06-15T01:53:20.451Z,10.73
2018-06-15T01:55:47.605Z,11.47
2018-06-15T01:58:18.383Z,12.23
2018-06-15T02:00:45.489Z,12.00
2018-06-15T02:03:12.629Z,11.07
2018-06-15T02:05:39.783Z,11.37
2018-06-15T02:08:06.873Z,11.73
2018-06-15T02:10:33.977Z,11.80
2018-06-15T02:13:01.117Z,11.33
2018-06-15T02:15:28.209Z,11.33
2018-06-15T02:17:55.322Z,11.07
2018-06-15T02:20:22.424Z,11.80
2018-06-15T02:22:50.057Z,12.60
2018-06-15T02:25:17.189Z,10.70
2018-06-15T02:27:44.332Z,11.10
2018-06-15T02:30:11.451Z,11.83
2018-06-15T02:32:38.557Z,11.30
2018-06-15T02:35:05.656Z,11.30
2018-06-15T02:37:32.762Z,12.20
2018-06-15T02:39:59.897Z,11.93
2018-06-15T02:42:27.057Z,11.10
2018-06-15T02:44:54.170Z,12.20
2018-06-15T02:47:21.292Z,11.73
2018-06-15T02:49:48.442Z,12.43
2018-06-15T02:52:15.637Z,11.43
2018-06-15T02:54:42.730Z,12.40
2018-06-15T02:57:09.857Z,11.00
2018-06-15T02:59:36.965Z,12.43
2018-06-15T03:02:04.266Z,12.20
2018-06-15T03:04:31.417Z,12.30
2018-06-15T03:06:58.527Z,11.70
2018-06-15T03:09:25.625Z,12.37
2018-06-15T03:11:52.730Z,12.20
2018-06-15T03:14:19.857Z,12.10
2018-06-15T03:16:46.989Z,11.60
2018-06-15T03:19:14.113Z,12.00
2018-06-15T03:21:41.235Z,11.90
2018-06-15T03:24:08.402Z,11.63
2018-06-15T03:26:35.498Z,13.27
2018-06-15T03:29:02.621Z,12.40
2018-06-15T03:31:29.762Z,11.90
2018-06-15T03:33:56.872Z,12.40
2018-06-15T03:36:23.984Z,11.40
2018-06-15T03:38:51.107Z,12.30
2018-06-15T03:41:18.210Z,13.20
2018-06-15T03:43:45.316Z,13.17
2018-06-15T03:46:12.449Z,12.40
2018-06-15T03:48:39.572Z,11.50
2018-06-15T03:51:06.697Z,12.33
2018-06-15T03:53:33.792Z,12.50
2018-06-15T03:56:00.894Z,12.10
2018-06-15T03:58:28.008Z,13.10
2018-06-15T04:00:55.228Z,12.30
2018-06-15T04:03:22.364Z,12.17
2018-06-15T04:05:49.470Z,13.20
2018-06-15T04:08:16.581Z,12.73
2018-06-15T04:10:43.726Z,12.40
2018-06-15T04:13:10.875Z,13.13
2018-06-15T04:15:37.929Z,13.40
2018-06-15T04:18:07.105Z,13.73
2018-06-15T04:20:37.423Z,13.33
2018-06-15T04:23:04.534Z,13.00
2018-06-15T04:25:31.818Z,12.70
2018-06-15T04:27:58.930Z,12.33
2018-06-15T04:30:26.048Z,13.20
2018-06-15T04:32:53.341Z,13.17
2018-06-15T04:35:20.525Z,12.70
2018-06-15T04:37:47.864Z,13.40
2018-06-15T04:40:14.969Z,13.23
2018-06-15T04:42:42.104Z,14.13
2018-06-15T04:45:09.205Z,12.20
2018-06-15T04:47:36.317Z,13.33
2018-06-15T04:50:03.569Z,12.97
2018-06-15T04:52:30.676Z,12.20
2018-06-15T04:54:57.845Z,12.80
2018-06-15T04:57:25.106Z,12.40
2018-06-15T04:59:52.209Z,12.73
2018-06-15T05:02:19.333Z,13.37
2018-06-15T05:04:47.996Z,12.30
2018-06-15T05:07:15.128Z,13.90
2018-06-15T05:09:42.248Z,13.07
2018-06-15T05:12:09.355Z,13.33
2018-06-15T05:14:36.485Z,13.17
2018-06-15T05:17:04.713Z,13.10
2018-06-15T05:19:31.821Z,13.90
2018-06-15T05:21:59.009Z,13.03
2018-06-15T05:24:26.166Z,13.07
2018-06-15T05:26:53.289Z,13.10
2018-06-15T05:29:20.441Z,13.10
2018-06-15T05:31:47.540Z,12.87
2018-06-15T05:34:14.663Z,13.17
2018-06-15T05:36:41.761Z,12.80
2018-06-15T05:39:10.072Z,12.40
2018-06-15T05:41:37.272Z,12.37
2018-06-15T05:44:04.464Z,12.60
2018-06-15T05:46:31.658Z,12.43
2018-06-15T05:48:58.841Z,12.87
2018-06-15T05:51:25.925Z,13.50
2018-06-15T05:53:53.025Z,13.53
2018-06-15T05:56:20.214Z,12.93
2018-06-15T05:58:47.490Z,13.20
2018-06-15T06:01:14.698Z,13.40
2018-06-15T06:03:43.090Z,13.90
2018-06-15T06:06:10.185Z,13.13
2018-06-15T06:08:37.426Z,13.50
2018-06-15T06:11:04.601Z,13.23
2018-06-15T06:13:32.077Z,13.77
2018-06-15T06:15:59.152Z,13.90
2018-06-15T06:18:26.253Z,13.53
2018-06-15T06:20:53.357Z,14.57
2018-06-15T06:23:20.449Z,13.73
2018-06-15T06:25:47.580Z,14.00
2018-06-15T06:28:14.705Z,15.20
2018-06-15T06:30:41.794Z,14.63
2018-06-15T06:33:08.953Z,14.10
2018-06-15T06:35:36.113Z,14.97
2018-06-15T06:38:03.349Z,14.40
2018-06-15T06:40:30.471Z,15.10
2018-06-15T06:42:57.567Z,16.10
2018-06-15T06:45:24.672Z,17.07
2018-06-15T06:47:51.759Z,17.53
2018-06-15T06:50:18.854Z,16.80
2018-06-15T06:52:46.003Z,16.50
2018-06-15T06:55:13.165Z,17.80
2018-06-15T06:57:40.313Z,19.87
2018-06-15T07:00:07.418Z,19.00
2018-06-15T07:02:34.567Z,20.30
2018-06-15T07:05:01.702Z,20.63
2018-06-15T07:07:28.996Z,19.40
2018-06-15T07:09:56.093Z,18.90
2018-06-15T07:12:23.184Z,19.90
2018-06-15T07:14:53.425Z,19.00
2018-06-15T07:17:20.562Z,20.30
2018-06-15T07:19:47.675Z,18.37
2018-06-15T07:22:14.768Z,19.77
2018-06-15T07:24:41.993Z,20.37
2018-06-15T07:27:09.095Z,17.90
2018-06-15T07:29:36.265Z,18.07
2018-06-15T07:32:03.359Z,17.30
2018-06-15T07:34:30.561Z,17.00
2018-06-15T07:36:57.747Z,17.77
2018-06-15T07:39:24.884Z,18.53
2018-06-15T07:41:51.989Z,17.80
2018-06-15T07:44:19.107Z,17.17
2018-06-15T07:46:46.260Z,17.87
2018-06-15T07:49:13.518Z,19.17
2018-06-15T07:51:40.669Z,18.00
2018-06-15T07:54:07.777Z,18.70
2018-06-15T07:56:34.890Z,18.17
2018-06-15T07:59:01.995Z,18.17
2018-06-15T08:01:29.094Z,19.50
2018-06-15T08:03:57.078Z,17.80
2018-06-15T08:06:24.182Z,19.17
2018-06-15T08:08:51.300Z,18.20
2018-06-15T08:11:18.424Z,17.80
2018-06-15T08:13:45.531Z,16.10
2018-06-15T08:16:12.630Z,14.50
2018-06-15T08:18:39.886Z,14.93
2018-06-15T08:21:07.090Z,13.97
2018-06-15T08:23:34.168Z,14.40
2018-06-15T08:26:01.270Z,13.50
2018-06-15T08:28:28.369Z,14.40
2018-06-15T08:30:55.478Z,14.37
2018-06-15T08:33:22.646Z,14.27
2018-06-15T08:35:49.764Z,13.07
2018-06-15T08:38:16.897Z,15.30
2018-06-15T08:40:44.045Z,14.03
2018-06-15T08:43:11.223Z,12.40
2018-06-15T08:45:38.356Z,14.37
2018-06-15T08:48:05.458Z,13.43
2018-06-15T08:50:32.561Z,12.57
2018-06-15T08:52:59.696Z,12.27
2018-06-15T08:55:26.821Z,13.20
2018-06-15T08:57:53.961Z,13.80
2018-06-15T09:00:21.064Z,14.27
2018-06-15T09:02:48.180Z,14.80
2018-06-15T09:05:15.341Z,14.37
2018-06-15T09:07:42.458Z,14.23
2018-06-15T09:10:09.558Z,15.00
2018-06-15T09:12:36.661Z,16.47
2018-06-15T09:15:03.820Z,14.70
2018-06-15T09:17:30.968Z,14.20
2018-06-15T09:19:58.073Z,13.53
2018-06-15T09:22:25.165Z,13.60
2018-06-15T09:24:52.861Z,12.30
2018-06-15T09:27:19.989Z,11.03
2018-06-15T09:29:47.117Z,11.53
2018-06-15T09:32:14.453Z,12.70
2018-06-15T09:34:41.525Z,10.97
2018-06-15T09:37:08.663Z,11.03
2018-06-15T09:39:35.789Z,10.50
2018-06-15T09:42:02.897Z,10.77
2018-06-15T09:44:30.014Z,10.37
2018-06-15T09:46:57.115Z,9.23
2018-06-15T09:49:24.216Z,9.80
2018-06-15T09:51:52.004Z,10.33
2018-06-15T09:54:19.185Z,8.87
2018-06-15T09:56:46.324Z,8.67
2018-06-15T09:59:13.837Z,8.10
2018-06-15T10:01:40.957Z,7.80
2018-06-15T10:04:08.047Z,8.40
2018-06-15T10:06:35.153Z,8.00
2018-06-15T10:09:02.277Z,8.50
2018-06-15T10:11:29.353Z,9.10
2018-06-15T10:13:56.458Z,9.00
2018-06-15T10:16:23.568Z,8.50
2018-06-15T10:18:50.710Z,8.20
2018-06-15T10:21:17.823Z,7.00
2018-06-15T10:23:44.910Z,7.00
2018-06-15T10:26:11.992Z,6.30
2018-06-15T10:28:39.139Z,7.17
2018-06-15T10:31:06.211Z,5.77
2018-06-15T10:33:33.317Z,7.07
2018-06-15T10:36:00.414Z,6.60
2018-06-15T10:38:27.568Z,6.07
2018-06-15T10:40:54.884Z,5.50
2018-06-15T10:43:21.956Z,5.40
2018-06-15T10:45:49.065Z,5.47
2018-06-15T10:48:16.162Z,5.80
2018-06-15T10:50:43.376Z,4.80
2018-06-15T10:53:10.477Z,5.43
2018-06-15T10:55:37.565Z,5.07
2018-06-15T10:58:04.704Z,4.90
2018-06-15T11:00:31.920Z,6.00
2018-06-15T11:02:59.093Z,5.67
2018-06-15T11:05:26.223Z,5.30
2018-06-15T11:07:53.321Z,4.90
2018-06-15T11:10:20.432Z,4.50
2018-06-15T11:12:47.653Z,4.80
2018-06-15T11:15:14.761Z,4.60
2018-06-15T11:17:41.872Z,4.90
2018-06-15T11:20:08.981Z,4.90
2018-06-15T11:22:36.189Z,5.10
2018-06-15T11:25:03.341Z,5.20
2018-06-15T11:27:30.485Z,5.17
2018-06-15T11:29:57.607Z,5.17
2018-06-15T11:32:24.692Z,5.17
2018-06-15T11:34:51.801Z,5.43
2018-06-15T11:37:18.957Z,5.23
2018-06-15T11:39:46.048Z,4.90
2018-06-15T11:42:13.152Z,4.87
2018-06-15T11:44:40.345Z,5.60
2018-06-15T11:47:07.449Z,5.83
2018-06-15T11:49:34.589Z,5.30
2018-06-15T11:52:01.799Z,6.00
2018-06-15T11:54:28.890Z,4.97
2018-06-15T11:56:55.989Z,5.63
2018-06-15T11:59:23.094Z,5.50
2018-06-15T12:01:50.279Z,5.60
2018-06-15T12:04:17.312Z,5.47
2018-06-15T12:06:44.445Z,5.80
2018-06-15T12:09:11.544Z,4.63
2018-06-15T12:11:38.658Z,4.60
2018-06-15T12:14:05.929Z,4.90
2018-06-15T12:16:33.057Z,5.50
2018-06-15T12:19:00.216Z,5.23
2018-06-15T12:21:27.313Z,4.90
2018-06-15T12:23:54.420Z,5.13
2018-06-15T12:26:21.520Z,5.00
2018-06-15T12:28:48.660Z,5.40
2018-06-15T12:31:15.748Z,5.53
2018-06-15T12:33:42.848Z,4.80
2018-06-15T12:36:09.943Z,4.80
2018-06-15T12:38:37.056Z,4.53
2018-06-15T12:41:04.176Z,4.80
2018-06-15T12:43:31.277Z,4.90
2018-06-15T12:45:58.513Z,4.73
2018-06-15T12:48:25.476Z,4.93
2018-06-15T12:50:52.665Z,4.80
2018-06-15T12:53:19.772Z,4.73
2018-06-15T12:55:47.371Z,4.73
2018-06-15T12:58:14.586Z,4.40
2018-06-15T13:00:41.709Z,4.73
2018-06-15T13:03:08.884Z,4.40
2018-06-15T13:05:36.049Z,4.37
2018-06-15T13:08:03.194Z,4.23
2018-06-15T13:10:30.296Z,4.27
2018-06-15T13:12:57.397Z,4.00
2018-06-15T13:15:24.536Z,3.80
2018-06-15T13:17:51.686Z,4.03
2018-06-15T13:20:18.818Z,4.00
2018-06-15T13:22:45.940Z,3.87
2018-06-15T13:25:13.060Z,3.60
2018-06-15T13:27:40.157Z,3.83
2018-06-15T13:30:07.357Z,4.10
2018-06-15T13:32:34.444Z,3.60
2018-06-15T13:35:01.554Z,3.60
2018-06-15T13:37:28.689Z,3.90
2018-06-15T13:39:55.805Z,3.80
2018-06-15T13:42:23.169Z,3.77
2018-06-15T13:44:50.272Z,3.77
2018-06-15T13:47:17.388Z,3.80
2018-06-15T13:49:44.604Z,3.60
2018-06-15T13:52:11.805Z,3.20
2018-06-15T13:54:38.944Z,3.10
2018-06-15T13:57:06.045Z,3.57
2018-06-15T13:59:33.226Z,3.23
2018-06-15T14:02:00.320Z,3.50
2018-06-15T14:04:27.495Z,3.27
2018-06-15T14:06:54.720Z,3.43
2018-06-15T14:09:21.849Z,2.77
2018-06-15T14:11:48.973Z,2.80
2018-06-15T14:14:16.069Z,2.80
2018-06-15T14:16:43.333Z,3.10
2018-06-15T14:19:10.469Z,3.03
2018-06-15T14:21:37.652Z,2.93
2018-06-15T14:24:05.961Z,2.60
2018-06-15T14:26:33.085Z,3.00
2018-06-15T14:29:00.224Z,2.80
2018-06-15T14:31:27.327Z,2.87
2018-06-15T14:33:54.461Z,2.50
2018-06-15T14:36:21.617Z,2.63
2018-06-15T14:38:48.807Z,2.00
2018-06-15T14:41:15.912Z,3.00
2018-06-15T14:43:43.075Z,3.03
2018-06-15T14:46:10.204Z,2.80
2018-06-15T14:48:37.316Z,3.10
2018-06-15T14:51:05.481Z,2.83
2018-06-15T14:53:32.597Z,2.60
2018-06-15T14:55:59.729Z,2.43
2018-06-15T14:58:27.257Z,2.50
2018-06-15T15:00:55.131Z,2.50
2018-06-15T15:03:22.236Z,2.60
2018-06-15T15:05:50.925Z,2.83
2018-06-15T15:08:20.110Z,2.97
2018-06-15T15:10:47.288Z,2.57
2018-06-15T15:13:14.480Z,3.00
2018-06-15T15:15:41.589Z,2.70
2018-06-15T15:18:12.840Z,2.70
2018-06-15T15:20:40.047Z,2.97
2018-06-15T15:23:07.166Z,2.63
2018-06-15T15:25:34.387Z,3.40
2018-06-15T15:28:01.616Z,3.47
2018-06-15T15:30:28.814Z,5.03
2018-06-15T15:32:56.145Z,5.50
2018-06-15T15:35:23.323Z,3.10
2018-06-15T15:37:50.449Z,22.63
2018-06-15T15:40:18.065Z,31.60
2018-06-15T15:42:45.168Z,9.90
2018-06-15T15:45:12.281Z,13.63
2018-06-15T15:47:39.413Z,8.00
2018-06-15T15:50:06.589Z,3.60
2018-06-15T15:52:33.712Z,3.60
2018-06-15T15:55:00.809Z,3.53
2018-06-15T15:57:27.950Z,3.40
2018-06-15T15:59:55.160Z,3.50
2018-06-15T16:02:22.276Z,2.90
2018-06-15T16:04:49.376Z,3.10
2018-06-15T16:07:16.543Z,2.80
2018-06-15T16:09:43.597Z,3.00
2018-06-15T16:12:10.785Z,2.80
2018-06-15T16:14:37.896Z,2.83
2018-06-15T16:17:05.090Z,2.90
2018-06-15T16:19:32.409Z,2.50
2018-06-15T16:21:59.619Z,2.70
2018-06-15T16:24:26.801Z,2.63
2018-06-15T16:26:53.920Z,2.77
2018-06-15T16:29:21.044Z,2.40
2018-06-15T16:31:48.148Z,2.60
2018-06-15T16:34:15.246Z,3.70
2018-06-15T16:36:42.348Z,2.70
2018-06-15T16:39:09.945Z,3.03
2018-06-15T16:41:37.512Z,2.40
2018-06-15T16:44:04.636Z,2.57
2018-06-15T16:46:32.077Z,2.30
2018-06-15T16:48:59.223Z,2.47
2018-06-15T16:51:26.372Z,2.53
2018-06-15T16:53:53.476Z,2.57
2018-06-15T16:56:20.682Z,2.47
2018-06-15T16:58:47.786Z,2.43
2018-06-15T17:01:14.949Z,2.50
2018-06-15T17:03:42.046Z,2.33
2018-06-15T17:06:09.504Z,4.00
2018-06-15T17:08:38.254Z,3.20
2018-06-15T17:11:05.351Z,2.70
2018-06-15T17:13:32.554Z,2.33
2018-06-15T17:15:59.710Z,2.70
2018-06-15T17:18:26.868Z,2.47
2018-06-15T17:20:53.979Z,2.40
2018-06-15T17:23:21.101Z,2.30
2018-06-15T17:25:48.211Z,2.20
2018-06-15T17:28:15.317Z,2.37
2018-06-15T17:30:42.464Z,2.40
2018-06-15T17:33:09.581Z,2.20
2018-06-15T17:35:36.714Z,2.37
2018-06-15T17:38:03.861Z,2.50
2018-06-15T17:40:31.029Z,2.13
2018-06-15T17:42:58.189Z,2.30
2018-06-15T17:45:25.285Z,2.60
2018-06-15T17:47:52.398Z,2.40
2018-06-15T17:50:19.508Z,2.27
2018-06-15T17:52:46.720Z,2.50
2018-06-15T17:55:13.856Z,2.47
2018-06-15T17:57:41.100Z,1.90
2018-06-15T18:00:08.190Z,2.20
2018-06-15T18:02:35.747Z,2.47
2018-06-15T18:05:02.868Z,2.20
2018-06-15T18:07:30.033Z,2.23
2018-06-15T18:09:57.178Z,2.23
2018-06-15T18:12:24.339Z,1.90
2018-06-15T18:14:51.456Z,2.03
2018-06-15T18:17:18.629Z,2.30
2018-06-15T18:19:45.688Z,1.93
2018-06-15T18:22:12.848Z,2.10
2018-06-15T18:24:39.924Z,2.20
2018-06-15T18:27:07.057Z,2.23
2018-06-15T18:29:34.207Z,2.07
2018-06-15T18:32:01.305Z,2.10
2018-06-15T18:34:28.527Z,2.23
2018-06-15T18:36:55.621Z,1.90
2018-06-15T18:39:22.757Z,2.10
2018-06-15T18:41:49.869Z,2.20
2018-06-15T18:44:17.046Z,2.20
2018-06-15T18:46:44.169Z,2.10
2018-06-15T18:49:11.279Z,2.17
2018-06-15T18:51:38.790Z,2.20
2018-06-15T18:54:05.918Z,2.37
2018-06-15T18:56:33.221Z,2.37
2018-06-15T18:59:00.314Z,2.40
2018-06-15T19:01:27.437Z,2.30
2018-06-15T19:03:54.541Z,2.23
2018-06-15T19:06:21.653Z,2.50
2018-06-15T19:08:48.755Z,2.80
2018-06-15T19:11:15.876Z,2.73
2018-06-15T19:13:42.996Z,2.37
2018-06-15T19:16:11.548Z,2.60
2018-06-15T19:18:41.531Z,2.60
2018-06-15T19:21:08.950Z,2.60
2018-06-15T19:23:36.100Z,2.50
2018-06-15T19:26:03.406Z,2.73
2018-06-15T19:28:30.532Z,2.80
2018-06-15T19:30:57.652Z,2.50
2018-06-15T19:33:24.979Z,2.60
2018-06-15T19:35:52.235Z,2.57
2018-06-15T19:38:19.866Z,2.70
2018-06-15T19:40:46.994Z,2.70
2018-06-15T19:43:14.106Z,2.93
2018-06-15T19:45:41.217Z,3.23
2018-06-15T19:48:08.332Z,2.80
2018-06-15T19:50:35.455Z,2.70
2018-06-15T19:53:02.570Z,3.10
2018-06-15T19:55:29.863Z,2.57
2018-06-15T19:57:56.955Z,2.90
2018-06-15T20:00:27.350Z,3.10
2018-06-15T20:02:55.576Z,2.57
2018-06-15T20:05:28.830Z,2.80
2018-06-15T20:07:58.293Z,3.50
2018-06-15T20:10:30.339Z,3.17
2018-06-15T20:12:58.928Z,3.00
2018-06-15T20:15:29.770Z,3.87
2018-06-15T20:18:02.428Z,7.37
2018-06-15T20:20:30.775Z,4.10
2018-06-15T20:23:00.637Z,3.17
2018-06-15T20:25:28.521Z,2.97
2018-06-15T20:27:57.727Z,3.27
2018-06-15T20:30:24.984Z,2.70
2018-06-15T20:32:52.128Z,2.90
2018-06-15T20:35:21.768Z,3.10
2018-06-15T20:37:49.246Z,3.20
2018-06-15T20:40:16.362Z,2.70
2018-06-15T20:42:43.495Z,3.13
2018-06-15T20:45:10.667Z,3.10
2018-06-15T20:47:37.916Z,3.07
2018-06-15T20:50:04.966Z,3.13
2018-06-15T20:52:32.261Z,3.30
2018-06-15T20:54:59.434Z,2.80
2018-06-15T20:57:26.675Z,3.23
2018-06-15T20:59:53.769Z,2.90
2018-06-15T21:02:20.864Z,3.17
2018-06-15T21:04:47.970Z,3.07
2018-06-15T21:07:15.086Z,3.10
2018-06-15T21:09:42.284Z,3.60
2018-06-15T21:12:09.426Z,3.73
2018-06-15T21:14:36.530Z,3.30
2018-06-15T21:17:03.645Z,3.20
2018-06-15T21:19:30.753Z,3.20
2018-06-15T21:21:57.857Z,2.90
2018-06-15T21:24:25.055Z,3.30
2018-06-15T21:26:52.153Z,3.20
2018-06-15T21:29:19.256Z,3.10
2018-06-15T21:31:46.482Z,2.90
2018-06-15T21:34:13.618Z,2.90
2018-06-15T21:36:40.753Z,3.20
2018-06-15T21:39:08.764Z,2.93
2018-06-15T21:41:35.901Z,3.10
2018-06-15T21:44:03.006Z,2.80
2018-06-15T21:46:30.142Z,3.27
2018-06-15T21:48:57.244Z,3.10
2018-06-15T21:51:24.380Z,3.40
2018-06-15T21:53:51.546Z,3.40
2018-06-15T21:56:18.646Z,3.13
2018-06-15T21:58:45.784Z,3.47
2018-06-15T22:01:12.890Z,3.50
2018-06-15T22:03:40.030Z,3.37
2018-06-15T22:06:07.107Z,3.23
2018-06-15T22:08:34.216Z,3.30
2018-06-15T22:11:01.309Z,3.30
2018-06-15T22:13:28.429Z,3.47
2018-06-15T22:15:55.558Z,3.33
2018-06-15T22:18:22.661Z,3.77
2018-06-15T22:20:49.796Z,3.60
2018-06-15T22:23:17.013Z,3.80
2018-06-15T22:25:44.226Z,4.17
2018-06-15T22:28:11.700Z,3.47
2018-06-15T22:30:38.804Z,3.30
2018-06-15T22:33:05.897Z,3.73
2018-06-15T22:35:33.038Z,3.90
2018-06-15T22:38:00.153Z,3.60
2018-06-15T22:40:27.270Z,3.53
2018-06-15T22:42:54.406Z,3.70
2018-06-15T22:45:21.605Z,4.37
2018-06-15T22:47:48.726Z,3.60
2018-06-15T22:50:15.894Z,3.70
2018-06-15T22:52:42.973Z,3.40
2018-06-15T22:55:10.078Z,3.43
2018-06-15T22:57:37.169Z,3.87
2018-06-15T23:00:04.720Z,3.77
2018-06-15T23:02:31.825Z,4.00
2018-06-15T23:04:58.914Z,3.70
2018-06-15T23:07:26.022Z,3.67
2018-06-15T23:09:53.141Z,3.67
2018-06-15T23:12:20.291Z,3.90
2018-06-15T23:14:47.455Z,3.50
2018-06-15T23:17:14.488Z,3.50
2018-06-15T23:19:41.604Z,3.60
2018-06-15T23:22:08.704Z,3.93
2018-06-15T23:24:35.816Z,3.67
2018-06-15T23:27:02.929Z,3.50
2018-06-15T23:29:30.034Z,3.80
2018-06-15T23:31:57.177Z,3.67
2018-06-15T23:34:24.288Z,3.70
2018-06-15T23:36:51.521Z,3.77
2018-06-15T23:39:18.654Z,3.50
2018-06-15T23:41:45.732Z,3.90
2018-06-15T23:44:12.836Z,3.97
2018-06-15T23:46:39.985Z,3.73
2018-06-15T23:49:07.089Z,3.83
2018-06-15T23:51:34.212Z,4.00
2018-06-15T23:54:01.373Z,3.80
2018-06-15T23:56:28.493Z,4.40
2018-06-15T23:58:55.669Z,3.97
